sensor_id;sensor_type;location;lat;lon;timestamp;temperature;humidity
40059;SHT31;25763;49.972;8.568;2022-10-30T00:01:52;12.75;88.40
40059;SHT31;25763;49.972;8.568;2022-10-30T00:04:17;12.71;88.45
40059;SHT31;25763;49.972;8.568;2022-10-30T00:06:43;12.78;88.33
40059;SHT31;25763;49.972;8.568;2022-10-30T00:09:09;12.68;88.30
40059;SHT31;25763;49.972;8.568;2022-10-30T00:11:34;12.70;88.39
40059;SHT31;25763;49.972;8.568;2022-10-30T00:14:00;12.68;88.31
40059;SHT31;25763;49.972;8.568;2022-10-30T00:16:25;12.61;88.40
40059;SHT31;25763;49.972;8.568;2022-10-30T00:18:51;12.56;88.56
40059;SHT31;25763;49.972;8.568;2022-10-30T00:21:16;12.53;88.41
40059;SHT31;25763;49.972;8.568;2022-10-30T00:23:47;12.55;88.55
40059;SHT31;25763;49.972;8.568;2022-10-30T00:26:13;12.63;88.35
40059;SHT31;25763;49.972;8.568;2022-10-30T00:28:39;12.57;88.31
40059;SHT31;25763;49.972;8.568;2022-10-30T00:31:04;12.64;88.09
40059;SHT31;25763;49.972;8.568;2022-10-30T00:33:30;12.70;87.90
40059;SHT31;25763;49.972;8.568;2022-10-30T00:35:55;12.67;87.77
40059;SHT31;25763;49.972;8.568;2022-10-30T00:38:21;12.67;87.66
40059;SHT31;25763;49.972;8.568;2022-10-30T00:40:46;12.68;87.50
40059;SHT31;25763;49.972;8.568;2022-10-30T00:43:36;12.68;87.29
40059;SHT31;25763;49.972;8.568;2022-10-30T00:46:12;12.56;87.36
40059;SHT31;25763;49.972;8.568;2022-10-30T00:48:39;12.47;87.19
40059;SHT31;25763;49.972;8.568;2022-10-30T00:51:07;12.53;87.22
40059;SHT31;25763;49.972;8.568;2022-10-30T00:53:34;12.57;87.32
40059;SHT31;25763;49.972;8.568;2022-10-30T00:56:04;12.61;87.19
40059;SHT31;25763;49.972;8.568;2022-10-30T00:58:43;12.64;87.13
40059;SHT31;25763;49.972;8.568;2022-10-30T01:01:16;12.65;87.12
40059;SHT31;25763;49.972;8.568;2022-10-30T01:03:43;12.63;87.00
40059;SHT31;25763;49.972;8.568;2022-10-30T01:06:11;12.64;86.96
40059;SHT31;25763;49.972;8.568;2022-10-30T01:08:39;12.65;86.90
40059;SHT31;25763;49.972;8.568;2022-10-30T01:11:06;12.60;87.00
40059;SHT31;25763;49.972;8.568;2022-10-30T01:13:33;12.60;87.02
40059;SHT31;25763;49.972;8.568;2022-10-30T01:26:51;12.57;86.85
40059;SHT31;25763;49.972;8.568;2022-10-30T01:30:08;12.53;86.85
40059;SHT31;25763;49.972;8.568;2022-10-30T01:35:20;12.35;87.15
40059;SHT31;25763;49.972;8.568;2022-10-30T01:38:02;12.22;87.45
40059;SHT31;25763;49.972;8.568;2022-10-30T01:40:29;12.18;87.42
40059;SHT31;25763;49.972;8.568;2022-10-30T01:42:56;12.28;87.31
40059;SHT31;25763;49.972;8.568;2022-10-30T01:50:55;12.20;87.47
40059;SHT31;25763;49.972;8.568;2022-10-30T01:58:43;12.20;87.23
40059;SHT31;25763;49.972;8.568;2022-10-30T02:01:12;12.11;87.51
40059;SHT31;25763;49.972;8.568;2022-10-30T02:03:37;12.02;87.72
40059;SHT31;25763;49.972;8.568;2022-10-30T02:06:04;11.91;87.84
40059;SHT31;25763;49.972;8.568;2022-10-30T02:08:29;11.84;88.20
40059;SHT31;25763;49.972;8.568;2022-10-30T02:10:54;11.80;88.12
40059;SHT31;25763;49.972;8.568;2022-10-30T02:13:20;11.77;88.20
40059;SHT31;25763;49.972;8.568;2022-10-30T02:15:46;11.74;88.31
40059;SHT31;25763;49.972;8.568;2022-10-30T02:18:12;11.74;88.21
40059;SHT31;25763;49.972;8.568;2022-10-30T02:20:38;11.86;88.19
40059;SHT31;25763;49.972;8.568;2022-10-30T02:23:03;11.93;88.06
40059;SHT31;25763;49.972;8.568;2022-10-30T02:25:29;11.98;87.97
40059;SHT31;25763;49.972;8.568;2022-10-30T02:27:54;12.01;87.89
40059;SHT31;25763;49.972;8.568;2022-10-30T02:30:19;12.06;87.76
40059;SHT31;25763;49.972;8.568;2022-10-30T02:32:46;12.08;87.68
40059;SHT31;25763;49.972;8.568;2022-10-30T02:35:11;12.09;87.61
40059;SHT31;25763;49.972;8.568;2022-10-30T02:37:36;12.15;87.59
40059;SHT31;25763;49.972;8.568;2022-10-30T02:40:04;12.02;87.60
40059;SHT31;25763;49.972;8.568;2022-10-30T02:42:30;12.05;87.76
40059;SHT31;25763;49.972;8.568;2022-10-30T02:44:55;12.08;87.63
40059;SHT31;25763;49.972;8.568;2022-10-30T02:47:20;12.02;87.57
40059;SHT31;25763;49.972;8.568;2022-10-30T02:49:46;12.09;87.43
40059;SHT31;25763;49.972;8.568;2022-10-30T02:52:11;12.06;87.37
40059;SHT31;25763;49.972;8.568;2022-10-30T02:54:36;12.11;87.49
40059;SHT31;25763;49.972;8.568;2022-10-30T02:57:02;11.91;87.59
40059;SHT31;25763;49.972;8.568;2022-10-30T02:59:28;11.93;87.81
40059;SHT31;25763;49.972;8.568;2022-10-30T03:01:53;11.88;87.70
40059;SHT31;25763;49.972;8.568;2022-10-30T03:04:20;11.88;87.87
40059;SHT31;25763;49.972;8.568;2022-10-30T03:06:45;11.83;87.87
40059;SHT31;25763;49.972;8.568;2022-10-30T03:09:10;11.76;88.12
40059;SHT31;25763;49.972;8.568;2022-10-30T03:11:36;11.69;88.08
40059;SHT31;25763;49.972;8.568;2022-10-30T03:14:01;11.66;88.33
40059;SHT31;25763;49.972;8.568;2022-10-30T03:16:27;11.66;88.39
40059;SHT31;25763;49.972;8.568;2022-10-30T03:18:54;11.74;88.32
40059;SHT31;25763;49.972;8.568;2022-10-30T03:21:21;11.59;88.54
40059;SHT31;25763;49.972;8.568;2022-10-30T03:23:46;11.58;88.65
40059;SHT31;25763;49.972;8.568;2022-10-30T03:26:12;11.73;88.39
40059;SHT31;25763;49.972;8.568;2022-10-30T03:28:38;11.73;88.36
40059;SHT31;25763;49.972;8.568;2022-10-30T03:31:06;11.71;88.29
40059;SHT31;25763;49.972;8.568;2022-10-30T03:33:32;11.81;88.08
40059;SHT31;25763;49.972;8.568;2022-10-30T03:35:58;11.67;88.11
40059;SHT31;25763;49.972;8.568;2022-10-30T03:38:24;11.79;87.90
40059;SHT31;25763;49.972;8.568;2022-10-30T03:40:50;11.86;87.77
40059;SHT31;25763;49.972;8.568;2022-10-30T03:43:15;11.91;87.77
40059;SHT31;25763;49.972;8.568;2022-10-30T03:45:48;11.98;87.73
40059;SHT31;25763;49.972;8.568;2022-10-30T03:48:14;11.97;87.61
40059;SHT31;25763;49.972;8.568;2022-10-30T03:50:40;11.97;87.51
40059;SHT31;25763;49.972;8.568;2022-10-30T03:53:05;12.01;87.36
40059;SHT31;25763;49.972;8.568;2022-10-30T03:55:31;12.01;87.30
40059;SHT31;25763;49.972;8.568;2022-10-30T03:57:56;11.87;87.40
40059;SHT31;25763;49.972;8.568;2022-10-30T04:00:21;11.83;87.36
40059;SHT31;25763;49.972;8.568;2022-10-30T04:02:48;11.74;87.50
40059;SHT31;25763;49.972;8.568;2022-10-30T04:05:16;11.74;87.59
40059;SHT31;25763;49.972;8.568;2022-10-30T04:07:42;11.81;87.40
40059;SHT31;25763;49.972;8.568;2022-10-30T04:10:08;11.84;87.24
40059;SHT31;25763;49.972;8.568;2022-10-30T04:12:34;11.88;87.12
40059;SHT31;25763;49.972;8.568;2022-10-30T04:14:59;11.88;87.12
40059;SHT31;25763;49.972;8.568;2022-10-30T04:17:24;11.91;87.08
40059;SHT31;25763;49.972;8.568;2022-10-30T04:19:50;11.91;86.94
40059;SHT31;25763;49.972;8.568;2022-10-30T04:22:15;11.73;87.56
40059;SHT31;25763;49.972;8.568;2022-10-30T04:24:40;11.81;87.47
40059;SHT31;25763;49.972;8.568;2022-10-30T04:27:06;11.86;87.33
40059;SHT31;25763;49.972;8.568;2022-10-30T04:29:31;11.87;87.24
40059;SHT31;25763;49.972;8.568;2022-10-30T04:31:57;11.86;87.26
40059;SHT31;25763;49.972;8.568;2022-10-30T04:34:22;11.74;87.57
40059;SHT31;25763;49.972;8.568;2022-10-30T04:36:47;11.76;87.55
40059;SHT31;25763;49.972;8.568;2022-10-30T04:39:13;11.63;87.70
40059;SHT31;25763;49.972;8.568;2022-10-30T04:41:38;11.51;88.11
40059;SHT31;25763;49.972;8.568;2022-10-30T04:44:03;11.45;88.21
40059;SHT31;25763;49.972;8.568;2022-10-30T04:46:30;11.44;88.14
40059;SHT31;25763;49.972;8.568;2022-10-30T04:48:56;11.45;88.16
40059;SHT31;25763;49.972;8.568;2022-10-30T04:51:22;11.55;87.93
40059;SHT31;25763;49.972;8.568;2022-10-30T04:53:48;11.44;88.06
40059;SHT31;25763;49.972;8.568;2022-10-30T04:56:13;11.41;88.04
40059;SHT31;25763;49.972;8.568;2022-10-30T04:58:39;11.52;87.89
40059;SHT31;25763;49.972;8.568;2022-10-30T05:01:05;11.55;87.84
40059;SHT31;25763;49.972;8.568;2022-10-30T05:03:31;11.58;87.78
40059;SHT31;25763;49.972;8.568;2022-10-30T05:06:02;11.58;87.73
40059;SHT31;25763;49.972;8.568;2022-10-30T05:08:29;11.59;87.75
40059;SHT31;25763;49.972;8.568;2022-10-30T05:10:55;11.59;87.66
40059;SHT31;25763;49.972;8.568;2022-10-30T05:13:20;11.58;87.60
40059;SHT31;25763;49.972;8.568;2022-10-30T05:15:46;11.53;87.54
40059;SHT31;25763;49.972;8.568;2022-10-30T05:18:11;11.44;87.75
40059;SHT31;25763;49.972;8.568;2022-10-30T05:20:37;11.35;87.86
40059;SHT31;25763;49.972;8.568;2022-10-30T05:23:02;11.24;87.96
40059;SHT31;25763;49.972;8.568;2022-10-30T05:25:28;11.17;88.00
40059;SHT31;25763;49.972;8.568;2022-10-30T05:27:58;11.08;87.99
40059;SHT31;25763;49.972;8.568;2022-10-30T05:30:25;10.87;88.42
40059;SHT31;25763;49.972;8.568;2022-10-30T05:32:56;10.82;88.71
40059;SHT31;25763;49.972;8.568;2022-10-30T05:35:22;10.80;88.71
40059;SHT31;25763;49.972;8.568;2022-10-30T05:37:47;10.94;88.52
40059;SHT31;25763;49.972;8.568;2022-10-30T05:40:12;10.96;88.54
40059;SHT31;25763;49.972;8.568;2022-10-30T05:42:44;10.92;88.71
40059;SHT31;25763;49.972;8.568;2022-10-30T05:45:09;10.82;88.92
40059;SHT31;25763;49.972;8.568;2022-10-30T05:47:34;10.73;89.25
40059;SHT31;25763;49.972;8.568;2022-10-30T05:50:00;10.80;89.35
40059;SHT31;25763;49.972;8.568;2022-10-30T05:52:25;10.93;89.13
40059;SHT31;25763;49.972;8.568;2022-10-30T05:54:50;10.99;89.06
40059;SHT31;25763;49.972;8.568;2022-10-30T05:57:16;11.01;88.90
40059;SHT31;25763;49.972;8.568;2022-10-30T05:59:41;11.07;88.84
40059;SHT31;25763;49.972;8.568;2022-10-30T06:02:06;11.08;88.72
40059;SHT31;25763;49.972;8.568;2022-10-30T06:04:31;11.11;88.56
40059;SHT31;25763;49.972;8.568;2022-10-30T06:06:57;11.10;88.39
40059;SHT31;25763;49.972;8.568;2022-10-30T06:09:22;11.11;88.35
40059;SHT31;25763;49.972;8.568;2022-10-30T06:11:47;11.11;88.24
40059;SHT31;25763;49.972;8.568;2022-10-30T06:14:13;11.11;88.20
40059;SHT31;25763;49.972;8.568;2022-10-30T06:16:38;11.12;88.17
40059;SHT31;25763;49.972;8.568;2022-10-30T06:19:03;11.11;88.13
40059;SHT31;25763;49.972;8.568;2022-10-30T06:21:29;11.14;88.09
40059;SHT31;25763;49.972;8.568;2022-10-30T06:23:54;11.11;88.01
40059;SHT31;25763;49.972;8.568;2022-10-30T06:26:20;11.12;88.04
40059;SHT31;25763;49.972;8.568;2022-10-30T06:28:45;11.12;88.00
40059;SHT31;25763;49.972;8.568;2022-10-30T06:31:10;11.15;87.99
40059;SHT31;25763;49.972;8.568;2022-10-30T06:33:36;11.15;87.92
40059;SHT31;25763;49.972;8.568;2022-10-30T06:36:01;11.14;87.81
40059;SHT31;25763;49.972;8.568;2022-10-30T06:38:26;11.12;87.83
40059;SHT31;25763;49.972;8.568;2022-10-30T06:40:52;11.11;87.69
40059;SHT31;25763;49.972;8.568;2022-10-30T06:43:17;11.15;87.66
40059;SHT31;25763;49.972;8.568;2022-10-30T06:45:43;11.17;87.57
40059;SHT31;25763;49.972;8.568;2022-10-30T06:48:08;11.14;87.51
40059;SHT31;25763;49.972;8.568;2022-10-30T06:50:33;11.18;87.54
40059;SHT31;25763;49.972;8.568;2022-10-30T06:52:59;11.20;87.43
40059;SHT31;25763;49.972;8.568;2022-10-30T06:55:24;11.01;87.66
40059;SHT31;25763;49.972;8.568;2022-10-30T06:57:56;11.07;87.65
40059;SHT31;25763;49.972;8.568;2022-10-30T07:00:22;11.11;87.55
40059;SHT31;25763;49.972;8.568;2022-10-30T07:02:58;11.20;87.48
40059;SHT31;25763;49.972;8.568;2022-10-30T07:05:24;11.17;87.26
40059;SHT31;25763;49.972;8.568;2022-10-30T07:07:49;11.22;87.08
40059;SHT31;25763;49.972;8.568;2022-10-30T07:10:15;11.17;87.09
40059;SHT31;25763;49.972;8.568;2022-10-30T07:12:40;11.29;86.89
40059;SHT31;25763;49.972;8.568;2022-10-30T07:15:06;11.39;86.81
40059;SHT31;25763;49.972;8.568;2022-10-30T07:17:31;11.46;86.73
40059;SHT31;25763;49.972;8.568;2022-10-30T07:19:57;11.53;86.73
40059;SHT31;25763;49.972;8.568;2022-10-30T07:22:22;11.55;86.65
40059;SHT31;25763;49.972;8.568;2022-10-30T07:24:47;11.65;86.79
40059;SHT31;25763;49.972;8.568;2022-10-30T07:27:13;11.79;86.51
40059;SHT31;25763;49.972;8.568;2022-10-30T07:29:38;11.90;86.27
40059;SHT31;25763;49.972;8.568;2022-10-30T07:32:04;11.99;86.12
40059;SHT31;25763;49.972;8.568;2022-10-30T07:34:29;12.11;85.95
40059;SHT31;25763;49.972;8.568;2022-10-30T07:36:55;12.22;85.87
40059;SHT31;25763;49.972;8.568;2022-10-30T07:39:20;12.29;86.03
40059;SHT31;25763;49.972;8.568;2022-10-30T07:41:47;12.42;85.84
40059;SHT31;25763;49.972;8.568;2022-10-30T07:44:13;12.56;85.66
40059;SHT31;25763;49.972;8.568;2022-10-30T07:46:38;12.65;85.62
40059;SHT31;25763;49.972;8.568;2022-10-30T07:49:04;12.75;85.83
40059;SHT31;25763;49.972;8.568;2022-10-30T07:51:29;12.88;85.86
40059;SHT31;25763;49.972;8.568;2022-10-30T07:53:55;13.08;85.66
40059;SHT31;25763;49.972;8.568;2022-10-30T07:56:20;13.11;85.85
40059;SHT31;25763;49.972;8.568;2022-10-30T07:58:45;13.11;86.45
40059;SHT31;25763;49.972;8.568;2022-10-30T08:01:11;13.30;86.25
40059;SHT31;25763;49.972;8.568;2022-10-30T08:03:36;13.40;86.51
40059;SHT31;25763;49.972;8.568;2022-10-30T08:06:01;13.37;87.09
40059;SHT31;25763;49.972;8.568;2022-10-30T08:08:27;13.47;87.06
40059;SHT31;25763;49.972;8.568;2022-10-30T08:10:52;13.58;87.19
40059;SHT31;25763;49.972;8.568;2022-10-30T08:13:17;13.68;87.12
40059;SHT31;25763;49.972;8.568;2022-10-30T08:15:43;13.85;87.01
40059;SHT31;25763;49.972;8.568;2022-10-30T08:18:08;13.91;87.01
40059;SHT31;25763;49.972;8.568;2022-10-30T08:20:34;14.02;87.02
40059;SHT31;25763;49.972;8.568;2022-10-30T08:22:59;14.27;86.95
40059;SHT31;25763;49.972;8.568;2022-10-30T08:25:27;14.51;86.42
40059;SHT31;25763;49.972;8.568;2022-10-30T08:27:57;14.64;86.11
40059;SHT31;25763;49.972;8.568;2022-10-30T08:30:24;14.79;85.98
40059;SHT31;25763;49.972;8.568;2022-10-30T08:32:50;15.03;85.59
40059;SHT31;25763;49.972;8.568;2022-10-30T08:35:15;15.08;85.55
40059;SHT31;25763;49.972;8.568;2022-10-30T08:37:41;15.24;85.20
40059;SHT31;25763;49.972;8.568;2022-10-30T08:40:08;15.39;85.04
40059;SHT31;25763;49.972;8.568;2022-10-30T08:42:34;15.49;84.91
40059;SHT31;25763;49.972;8.568;2022-10-30T08:44:59;15.61;84.78
40059;SHT31;25763;49.972;8.568;2022-10-30T08:47:24;15.87;84.59
40059;SHT31;25763;49.972;8.568;2022-10-30T08:49:50;16.07;84.48
40059;SHT31;25763;49.972;8.568;2022-10-30T08:52:15;16.28;84.26
40059;SHT31;25763;49.972;8.568;2022-10-30T08:54:40;16.32;83.98
40059;SHT31;25763;49.972;8.568;2022-10-30T08:57:06;16.30;83.70
40059;SHT31;25763;49.972;8.568;2022-10-30T08:59:31;16.56;83.66
40059;SHT31;25763;49.972;8.568;2022-10-30T09:01:56;16.75;83.40
40059;SHT31;25763;49.972;8.568;2022-10-30T09:04:22;16.80;83.21
40059;SHT31;25763;49.972;8.568;2022-10-30T09:06:47;16.90;82.89
40059;SHT31;25763;49.972;8.568;2022-10-30T09:09:12;17.01;82.64
40059;SHT31;25763;49.972;8.568;2022-10-30T09:11:38;16.99;82.66
40059;SHT31;25763;49.972;8.568;2022-10-30T09:14:04;17.12;82.66
40059;SHT31;25763;49.972;8.568;2022-10-30T09:16:29;17.27;82.34
40059;SHT31;25763;49.972;8.568;2022-10-30T09:18:54;17.46;81.74
40059;SHT31;25763;49.972;8.568;2022-10-30T09:21:20;17.51;81.40
40059;SHT31;25763;49.972;8.568;2022-10-30T09:23:45;17.63;81.40
40059;SHT31;25763;49.972;8.568;2022-10-30T09:26:10;17.53;80.79
40059;SHT31;25763;49.972;8.568;2022-10-30T09:28:36;17.41;80.91
40059;SHT31;25763;49.972;8.568;2022-10-30T09:31:01;17.57;81.05
40059;SHT31;25763;49.972;8.568;2022-10-30T09:33:27;17.54;80.44
40059;SHT31;25763;49.972;8.568;2022-10-30T09:35:52;17.60;80.62
40059;SHT31;25763;49.972;8.568;2022-10-30T09:38:17;17.74;80.77
40059;SHT31;25763;49.972;8.568;2022-10-30T10:05:42;18.51;77.99
40059;SHT31;25763;49.972;8.568;2022-10-30T10:08:13;18.67;77.42
40059;SHT31;25763;49.972;8.568;2022-10-30T10:10:45;18.86;77.81
40059;SHT31;25763;49.972;8.568;2022-10-30T10:13:23;18.59;76.70
40059;SHT31;25763;49.972;8.568;2022-10-30T10:15:58;18.54;77.38
40059;SHT31;25763;49.972;8.568;2022-10-30T10:18:36;18.52;77.23
40059;SHT31;25763;49.972;8.568;2022-10-30T10:21:09;18.77;77.34
40059;SHT31;25763;49.972;8.568;2022-10-30T10:23:49;18.76;76.57
40059;SHT31;25763;49.972;8.568;2022-10-30T10:29:12;18.82;76.94
40059;SHT31;25763;49.972;8.568;2022-10-30T10:37:03;19.55;75.24
40059;SHT31;25763;49.972;8.568;2022-10-30T10:48:05;19.81;73.05
40059;SHT31;25763;49.972;8.568;2022-10-30T10:50:50;20.03;71.74
40059;SHT31;25763;49.972;8.568;2022-10-30T10:53:20;20.24;72.40
40059;SHT31;25763;49.972;8.568;2022-10-30T10:55:50;20.25;71.11
40059;SHT31;25763;49.972;8.568;2022-10-30T10:58:54;20.36;71.01
40059;SHT31;25763;49.972;8.568;2022-10-30T11:01:15;20.66;71.16
40059;SHT31;25763;49.972;8.568;2022-10-30T11:03:55;20.57;71.37
40059;SHT31;25763;49.972;8.568;2022-10-30T11:06:31;20.79;71.08
40059;SHT31;25763;49.972;8.568;2022-10-30T11:09:19;20.55;70.38
40059;SHT31;25763;49.972;8.568;2022-10-30T11:11:46;20.56;70.57
40059;SHT31;25763;49.972;8.568;2022-10-30T11:14:18;20.71;70.00
40059;SHT31;25763;49.972;8.568;2022-10-30T11:19:48;20.84;69.67
40059;SHT31;25763;49.972;8.568;2022-10-30T11:22:30;20.84;69.77
40059;SHT31;25763;49.972;8.568;2022-10-30T11:25:17;20.91;68.92
40059;SHT31;25763;49.972;8.568;2022-10-30T11:27:44;20.92;69.92
40059;SHT31;25763;49.972;8.568;2022-10-30T11:30:19;20.83;69.60
40059;SHT31;25763;49.972;8.568;2022-10-30T11:32:45;20.83;69.53
40059;SHT31;25763;49.972;8.568;2022-10-30T11:35:13;20.81;69.11
40059;SHT31;25763;49.972;8.568;2022-10-30T11:37:40;20.97;68.90
40059;SHT31;25763;49.972;8.568;2022-10-30T11:40:16;20.92;69.22
40059;SHT31;25763;49.972;8.568;2022-10-30T11:42:59;21.01;68.56
40059;SHT31;25763;49.972;8.568;2022-10-30T11:45:39;20.95;68.81
40059;SHT31;25763;49.972;8.568;2022-10-30T11:48:09;21.01;69.12
40059;SHT31;25763;49.972;8.568;2022-10-30T11:50:36;20.91;69.73
40059;SHT31;25763;49.972;8.568;2022-10-30T11:53:16;20.97;69.95
40059;SHT31;25763;49.972;8.568;2022-10-30T11:55:45;20.99;69.62
40059;SHT31;25763;49.972;8.568;2022-10-30T11:58:24;21.01;70.16
40059;SHT31;25763;49.972;8.568;2022-10-30T12:01:21;21.04;70.24
40059;SHT31;25763;49.972;8.568;2022-10-30T12:03:47;20.98;68.68
40059;SHT31;25763;49.972;8.568;2022-10-30T12:09:09;20.90;68.87
40059;SHT31;25763;49.972;8.568;2022-10-30T12:11:37;20.90;68.72
40059;SHT31;25763;49.972;8.568;2022-10-30T12:14:04;20.87;69.00
40059;SHT31;25763;49.972;8.568;2022-10-30T12:16:30;20.83;69.86
40059;SHT31;25763;49.972;8.568;2022-10-30T12:19:03;20.77;69.50
40059;SHT31;25763;49.972;8.568;2022-10-30T12:21:41;20.87;70.03
40059;SHT31;25763;49.972;8.568;2022-10-30T12:24:15;21.01;69.90
40059;SHT31;25763;49.972;8.568;2022-10-30T12:26:46;21.11;69.44
40059;SHT31;25763;49.972;8.568;2022-10-30T12:29:14;21.08;69.08
40059;SHT31;25763;49.972;8.568;2022-10-30T12:32:00;21.19;69.63
40059;SHT31;25763;49.972;8.568;2022-10-30T12:34:36;21.20;69.54
40059;SHT31;25763;49.972;8.568;2022-10-30T12:37:27;21.28;69.67
40059;SHT31;25763;49.972;8.568;2022-10-30T12:39:57;21.43;70.10
40059;SHT31;25763;49.972;8.568;2022-10-30T12:42:25;21.50;69.50
40059;SHT31;25763;49.972;8.568;2022-10-30T12:45:05;21.50;69.70
40059;SHT31;25763;49.972;8.568;2022-10-30T12:47:50;21.67;69.16
40059;SHT31;25763;49.972;8.568;2022-10-30T12:50:20;21.89;69.85
40059;SHT31;25763;49.972;8.568;2022-10-30T12:52:56;21.75;68.47
40059;SHT31;25763;49.972;8.568;2022-10-30T12:55:30;21.65;68.43
40059;SHT31;25763;49.972;8.568;2022-10-30T12:58:04;21.61;68.86
40059;SHT31;25763;49.972;8.568;2022-10-30T13:00:38;21.71;69.30
40059;SHT31;25763;49.972;8.568;2022-10-30T13:05:56;21.98;69.41
40059;SHT31;25763;49.972;8.568;2022-10-30T13:08:29;21.91;69.04
40059;SHT31;25763;49.972;8.568;2022-10-30T13:13:40;21.77;68.21
40059;SHT31;25763;49.972;8.568;2022-10-30T13:16:25;21.87;69.05
40059;SHT31;25763;49.972;8.568;2022-10-30T13:18:56;21.95;69.53
40059;SHT31;25763;49.972;8.568;2022-10-30T13:21:47;21.91;68.98
40059;SHT31;25763;49.972;8.568;2022-10-30T13:24:20;21.82;69.40
40059;SHT31;25763;49.972;8.568;2022-10-30T13:26:59;21.81;69.40
40059;SHT31;25763;49.972;8.568;2022-10-30T13:29:44;21.88;69.65
40059;SHT31;25763;49.972;8.568;2022-10-30T13:35:18;21.85;68.99
40059;SHT31;25763;49.972;8.568;2022-10-30T13:38:24;21.88;69.11
40059;SHT31;25763;49.972;8.568;2022-10-30T13:41:23;21.84;69.38
40059;SHT31;25763;49.972;8.568;2022-10-30T13:49:14;22.05;69.57
40059;SHT31;25763;49.972;8.568;2022-10-30T13:52:17;21.97;68.88
40059;SHT31;25763;49.972;8.568;2022-10-30T13:58:07;21.79;69.75
40059;SHT31;25763;49.972;8.568;2022-10-30T14:01:04;21.77;70.69
40059;SHT31;25763;49.972;8.568;2022-10-30T14:11:26;21.61;70.85
40059;SHT31;25763;49.972;8.568;2022-10-30T14:14:25;21.53;70.52
40059;SHT31;25763;49.972;8.568;2022-10-30T14:17:11;21.51;70.89
40059;SHT31;25763;49.972;8.568;2022-10-30T14:22:33;21.39;71.02
40059;SHT31;25763;49.972;8.568;2022-10-30T14:24:59;21.33;71.72
40059;SHT31;25763;49.972;8.568;2022-10-30T14:27:32;21.30;71.63
40059;SHT31;25763;49.972;8.568;2022-10-30T14:29:58;21.28;72.08
40059;SHT31;25763;49.972;8.568;2022-10-30T14:39:47;21.20;71.69
40059;SHT31;25763;49.972;8.568;2022-10-30T14:47:42;21.02;73.45
40059;SHT31;25763;49.972;8.568;2022-10-30T14:53:21;20.83;74.49
40059;SHT31;25763;49.972;8.568;2022-10-30T14:56:05;20.76;74.75
40059;SHT31;25763;49.972;8.568;2022-10-30T14:58:34;20.69;74.93
40059;SHT31;25763;49.972;8.568;2022-10-30T15:09:27;20.52;74.69
40059;SHT31;25763;49.972;8.568;2022-10-30T15:12:28;20.39;75.25
40059;SHT31;25763;49.972;8.568;2022-10-30T15:15:02;20.28;75.63
40059;SHT31;25763;49.972;8.568;2022-10-30T15:17:32;20.15;75.93
40059;SHT31;25763;49.972;8.568;2022-10-30T15:20:00;20.04;76.97
40059;SHT31;25763;49.972;8.568;2022-10-30T15:22:27;20.05;77.04
40059;SHT31;25763;49.972;8.568;2022-10-30T15:24:53;20.04;76.95
40059;SHT31;25763;49.972;8.568;2022-10-30T15:27:21;19.91;77.13
40059;SHT31;25763;49.972;8.568;2022-10-30T15:29:59;19.87;77.21
40059;SHT31;25763;49.972;8.568;2022-10-30T15:32:25;19.83;77.71
40059;SHT31;25763;49.972;8.568;2022-10-30T15:34:56;19.76;77.75
40059;SHT31;25763;49.972;8.568;2022-10-30T15:37:22;19.66;78.04
40059;SHT31;25763;49.972;8.568;2022-10-30T15:39:47;19.52;78.56
40059;SHT31;25763;49.972;8.568;2022-10-30T15:42:13;19.41;78.57
40059;SHT31;25763;49.972;8.568;2022-10-30T15:44:41;19.27;78.66
40059;SHT31;25763;49.972;8.568;2022-10-30T15:47:15;19.17;79.42
40059;SHT31;25763;49.972;8.568;2022-10-30T15:49:49;19.08;79.46
40059;SHT31;25763;49.972;8.568;2022-10-30T15:52:21;18.97;79.52
40059;SHT31;25763;49.972;8.568;2022-10-30T15:54:51;18.92;80.02
40059;SHT31;25763;49.972;8.568;2022-10-30T15:57:41;18.80;80.13
40059;SHT31;25763;49.972;8.568;2022-10-30T16:00:21;18.67;80.47
40059;SHT31;25763;49.972;8.568;2022-10-30T16:02:48;18.57;80.72
40059;SHT31;25763;49.972;8.568;2022-10-30T16:05:23;18.45;80.94
40059;SHT31;25763;49.972;8.568;2022-10-30T16:07:48;18.33;81.23
40059;SHT31;25763;49.972;8.568;2022-10-30T16:10:17;18.26;81.43
40059;SHT31;25763;49.972;8.568;2022-10-30T16:12:43;18.16;81.65
40059;SHT31;25763;49.972;8.568;2022-10-30T16:15:39;18.14;81.46
40059;SHT31;25763;49.972;8.568;2022-10-30T16:20:39;18.05;81.65
40059;SHT31;25763;49.972;8.568;2022-10-30T16:23:05;17.99;81.53
40059;SHT31;25763;49.972;8.568;2022-10-30T16:25:31;17.93;81.45
40059;SHT31;25763;49.972;8.568;2022-10-30T16:27:59;17.89;81.83
40059;SHT31;25763;49.972;8.568;2022-10-30T16:30:25;17.82;81.71
40059;SHT31;25763;49.972;8.568;2022-10-30T16:32:53;17.78;82.11
40059;SHT31;25763;49.972;8.568;2022-10-30T16:35:21;17.71;82.02
40059;SHT31;25763;49.972;8.568;2022-10-30T16:37:47;17.50;83.50
40059;SHT31;25763;49.972;8.568;2022-10-30T16:40:17;17.41;83.48
40059;SHT31;25763;49.972;8.568;2022-10-30T16:42:57;17.33;83.90
40059;SHT31;25763;49.972;8.568;2022-10-30T16:47:57;17.18;84.24
40059;SHT31;25763;49.972;8.568;2022-10-30T16:50:28;17.09;84.43
40059;SHT31;25763;49.972;8.568;2022-10-30T16:53:06;17.01;84.59
40059;SHT31;25763;49.972;8.568;2022-10-30T16:55:33;16.81;85.28
40059;SHT31;25763;49.972;8.568;2022-10-30T16:58:02;16.85;84.93
40059;SHT31;25763;49.972;8.568;2022-10-30T17:00:28;16.85;84.46
40059;SHT31;25763;49.972;8.568;2022-10-30T17:02:56;16.75;84.40
40059;SHT31;25763;49.972;8.568;2022-10-30T17:05:27;16.71;85.17
40059;SHT31;25763;49.972;8.568;2022-10-30T17:13:32;16.45;86.27
40059;SHT31;25763;49.972;8.568;2022-10-30T17:18:41;16.38;85.77
40059;SHT31;25763;49.972;8.568;2022-10-30T17:21:09;16.38;85.61
40059;SHT31;25763;49.972;8.568;2022-10-30T17:23:35;16.33;85.32
40059;SHT31;25763;49.972;8.568;2022-10-30T17:26:08;16.29;85.06
40059;SHT31;25763;49.972;8.568;2022-10-30T17:28:35;16.30;84.83
40059;SHT31;25763;49.972;8.568;2022-10-30T17:31:31;16.28;84.86
40059;SHT31;25763;49.972;8.568;2022-10-30T17:36:36;16.21;84.65
40059;SHT31;25763;49.972;8.568;2022-10-30T17:39:02;16.14;84.61
40059;SHT31;25763;49.972;8.568;2022-10-30T17:41:27;16.11;84.57
40059;SHT31;25763;49.972;8.568;2022-10-30T17:43:55;15.90;85.67
40059;SHT31;25763;49.972;8.568;2022-10-30T17:46:21;15.74;86.03
40059;SHT31;25763;49.972;8.568;2022-10-30T17:48:48;15.79;85.69
40059;SHT31;25763;49.972;8.568;2022-10-30T17:51:15;15.77;85.43
40059;SHT31;25763;49.972;8.568;2022-10-30T17:53:41;15.73;85.74
40059;SHT31;25763;49.972;8.568;2022-10-30T17:56:27;15.74;85.53
40059;SHT31;25763;49.972;8.568;2022-10-30T17:58:54;15.71;85.33
40059;SHT31;25763;49.972;8.568;2022-10-30T18:01:22;15.67;85.23
40059;SHT31;25763;49.972;8.568;2022-10-30T18:03:49;15.63;85.11